Time;durP1;ratioP1;P1;durP2;ratioP2;P2;SDS_P1;SDS_P2;PMS_P1;PMS_P2;Temp;Humidity;BMP_temperature;BMP_pressure;BME280_temperature;BME280_humidity;BME280_pressure;Samples;Min_cycle;Max_cycle;Signal;HPM_P1;HPM_P2
2022/09/17 00:01:01;;;;;;;;;;;;;;;14.02;61.65;100280.91;4991468;28;6793;-80
2022/09/17 00:03:28;;;;;;;;;;;;;;;14.03;61.03;100289.50;4994291;28;8091;-79
2022/09/17 00:06:00;;;;;;;;;;;;;;;14.00;61.72;100299.72;4989507;28;8772;-80
2022/09/17 00:08:25;;;;;;;;;;;;;;;13.97;61.75;100297.91;4995265;28;7175;-80
2022/09/17 00:10:51;;;;;;;;;;;;;;;13.95;61.45;100302.16;4978148;28;8443;-81
2022/09/17 00:13:17;;;;;;;;;;;;;;;13.94;61.70;100300.41;4979545;28;7038;-82
2022/09/17 00:15:45;;;;;;;;;;;;;;;13.93;61.08;100303.81;4978145;28;8526;-80
2022/09/17 00:18:13;;;;;;;;;;;;;;;13.92;61.19;100299.47;4969375;28;8551;-81
2022/09/17 00:20:41;;;;;;;;;;;;;;;13.94;61.65;100302.97;4974877;28;8508;-81
2022/09/17 00:23:08;;;;;;;;;;;;;;;13.97;61.42;100303.06;4995388;28;7141;-81
2022/09/17 00:25:42;;;;;;;;;;;;;;;14.00;62.22;100303.19;4995014;28;6796;-81
2022/09/17 00:28:07;;;;;;;;;;;;;;;14.04;61.13;100304.13;5012455;28;7209;-81
2022/09/17 00:30:34;;;;;;;;;;;;;;;14.08;61.38;100305.09;4994533;28;7199;-81
2022/09/17 00:33:00;;;;;;;;;;;;;;;14.09;61.26;100305.16;4995283;28;6919;-82
2022/09/17 00:35:27;;;;;;;;;;;;;;;14.11;61.57;100302.66;4982163;28;6990;-81
2022/09/17 00:37:53;;;;;;;;;;;;;;;14.12;61.13;100301.81;4995960;28;6796;-80
2022/09/17 00:40:20;;;;;;;;;;;;;;;14.11;61.05;100306.09;4995382;28;8868;-80
2022/09/17 00:42:46;;;;;;;;;;;;;;;14.09;61.42;100299.13;4996183;28;6960;-81
2022/09/17 00:45:12;;;;;;;;;;;;;;;14.07;61.38;100305.94;4992922;28;6950;-82
2022/09/17 00:47:45;;;;;;;;;;;;;;;14.08;61.94;100300.84;4993987;28;6788;-81
2022/09/17 00:50:40;;;;;;;;;;;;;;;14.10;61.05;100299.19;5015957;28;7225;-82
2022/09/17 00:53:17;;;;;;;;;;;;;;;14.14;61.45;100301.03;5011280;28;7229;-82
2022/09/17 00:55:56;;;;;;;;;;;;;;;14.17;61.72;100307.97;4994756;28;7234;-81
2022/09/17 00:58:25;;;;;;;;;;;;;;;14.20;61.01;100302.94;4969115;28;8434;-82
2022/09/17 01:00:51;;;;;;;;;;;;;;;14.23;61.53;100309.88;4992647;28;8519;-81
2022/09/17 01:03:17;;;;;;;;;;;;;;;14.25;60.92;100308.25;4993946;28;6945;-81
2022/09/17 01:06:04;;;;;;;;;;;;;;;14.25;61.36;100314.25;4976473;28;8609;-82
2022/09/17 01:09:17;;;;;;;;;;;;;;;14.25;60.56;100309.09;4995985;28;7042;-82
2022/09/17 01:12:19;;;;;;;;;;;;;;;14.20;60.63;100309.78;4995122;28;7229;-81
2022/09/17 01:15:05;;;;;;;;;;;;;;;14.14;61.29;100325.94;5014078;28;6986;-81
2022/09/17 01:18:14;;;;;;;;;;;;;;;14.09;61.35;100320.63;5014971;28;7376;-81
2022/09/17 01:21:15;;;;;;;;;;;;;;;14.06;60.45;100323.13;4983780;28;6991;-80
2022/09/17 01:24:39;;;;;;;;;;;;;;;13.99;61.25;100332.31;4994309;28;6989;-82
2022/09/17 01:27:28;;;;;;;;;;;;;;;13.94;60.91;100328.75;5008642;28;7086;-81
2022/09/17 01:29:56;;;;;;;;;;;;;;;13.94;61.05;100333.88;4998053;28;7215;-80
2022/09/17 01:32:33;;;;;;;;;;;;;;;13.95;61.91;100329.59;4990068;28;7011;-81
2022/09/17 01:35:18;;;;;;;;;;;;;;;13.97;61.98;100336.56;4993100;28;7466;-82
2022/09/17 01:38:17;;;;;;;;;;;;;;;13.97;61.14;100339.13;4998176;28;7084;-81
2022/09/17 01:41:06;;;;;;;;;;;;;;;13.98;61.88;100340.88;5007470;28;7017;-81
2022/09/17 01:44:12;;;;;;;;;;;;;;;13.99;61.94;100341.78;4992165;28;6804;-81
2022/09/17 01:46:47;;;;;;;;;;;;;;;13.99;62.00;100337.47;4994188;28;6992;-80
2022/09/17 01:49:15;;;;;;;;;;;;;;;14.03;61.83;100334.19;4984049;28;6804;-80
2022/09/17 01:51:47;;;;;;;;;;;;;;;14.10;61.63;100339.53;4994929;28;7250;-81
2022/09/17 01:54:34;;;;;;;;;;;;;;;14.15;62.12;100333.72;4983378;28;7447;-81
2022/09/17 01:57:32;;;;;;;;;;;;;;;14.21;61.60;100337.31;4993397;28;7296;-82
2022/09/17 02:00:11;;;;;;;;;;;;;;;14.24;61.55;100343.44;4980178;28;8902;-81
2022/09/17 02:02:49;;;;;;;;;;;;;;;14.29;61.54;100344.47;4979458;28;7198;-80
2022/09/17 02:05:40;;;;;;;;;;;;;;;14.35;62.21;100345.50;5008079;28;6964;-80
2022/09/17 02:08:26;;;;;;;;;;;;;;;14.39;61.36;100352.47;4968172;28;8792;-81
2022/09/17 02:11:06;;;;;;;;;;;;;;;14.41;61.11;100350.84;4992927;28;6954;-81
2022/09/17 02:13:41;;;;;;;;;;;;;;;14.44;61.75;100351.81;4992598;28;8457;-77
2022/09/17 02:16:41;;;;;;;;;;;;;;;14.49;61.39;100353.66;5011772;28;6807;-78
2022/09/17 02:19:21;;;;;;;;;;;;;;;14.52;61.69;100353.75;5008896;28;7548;-78
2022/09/17 02:22:21;;;;;;;;;;;;;;;14.53;61.83;100351.22;5010688;28;6871;-76
2022/09/17 02:25:35;;;;;;;;;;;;;;;14.52;61.57;100354.63;4980712;28;7108;-76
2022/09/17 02:28:31;;;;;;;;;;;;;;;14.51;61.21;100350.31;4991701;28;7264;-76
2022/09/17 02:30:56;;;;;;;;;;;;;;;14.53;61.13;100356.38;4965935;28;7238;-77
2022/09/17 02:33:23;;;;;;;;;;;;;;;14.53;61.60;100358.06;4993596;28;6779;-77
2022/09/17 02:35:49;;;;;;;;;;;;;;;14.54;61.48;100352.97;4997125;28;6974;-78
2022/09/17 02:38:27;;;;;;;;;;;;;;;14.52;60.41;100353.75;4990777;28;6970;-76
2022/09/17 02:41:13;;;;;;;;;;;;;;;14.48;60.55;100354.50;4990181;28;6816;-76
2022/09/17 02:44:12;;;;;;;;;;;;;;;14.45;60.56;100360.41;4995214;28;7219;-77
2022/09/17 02:47:03;;;;;;;;;;;;;;;14.42;60.75;100368.06;5013471;28;7193;-76
2022/09/17 02:50:37;;;;;;;;;;;;;;;14.43;60.85;100368.09;4980879;28;7073;-78
2022/09/17 02:53:32;;;;;;;;;;;;;;;14.44;61.98;100366.41;5007576;28;6804;-77
2022/09/17 02:56:17;;;;;;;;;;;;;;;14.47;61.08;100361.34;4992445;28;6993;-78
2022/09/17 02:58:57;;;;;;;;;;;;;;;14.50;61.23;100368.31;4994147;28;6986;-77
2022/09/17 03:01:32;;;;;;;;;;;;;;;14.53;61.08;100361.53;4994847;28;7245;-77
2022/09/17 03:04:03;;;;;;;;;;;;;;;14.54;61.48;100363.28;4994704;28;7007;-78
2022/09/17 03:06:29;;;;;;;;;;;;;;;14.57;60.70;100363.38;4998668;28;6867;-76
2022/09/17 03:08:56;;;;;;;;;;;;;;;14.58;60.94;100365.16;5000655;28;7214;-77
2022/09/17 03:11:22;;;;;;;;;;;;;;;14.60;61.65;100361.75;4995720;28;7234;-76
2022/09/17 03:13:47;;;;;;;;;;;;;;;14.61;60.56;100366.94;4982863;28;7214;-78
2022/09/17 03:16:13;;;;;;;;;;;;;;;14.62;61.33;100370.41;5015968;28;7208;-76
2022/09/17 03:18:39;;;;;;;;;;;;;;;14.62;60.99;100363.50;4995074;28;6860;-76
2022/09/17 03:21:05;;;;;;;;;;;;;;;14.64;61.60;100371.31;4995638;28;6963;-79
2022/09/17 03:23:31;;;;;;;;;;;;;;;14.65;60.87;100360.16;4995651;28;6859;-75
2022/09/17 03:25:58;;;;;;;;;;;;;;;14.65;60.80;100365.31;4992667;28;7151;-77
2022/09/17 03:28:25;;;;;;;;;;;;;;;14.63;61.32;100361.81;4994141;28;6796;-77
2022/09/17 03:30:52;;;;;;;;;;;;;;;14.65;61.17;100362.75;5012896;28;6800;-77
2022/09/17 03:33:18;;;;;;;;;;;;;;;14.66;61.11;100367.06;4995417;28;7032;-77
2022/09/17 03:35:45;;;;;;;;;;;;;;;14.64;60.55;100364.47;4995132;28;6792;-76
2022/09/17 03:38:12;;;;;;;;;;;;;;;14.62;60.46;100368.66;4976520;28;6996;-75
2022/09/17 03:40:39;;;;;;;;;;;;;;;14.63;60.09;100372.16;4984410;28;7015;-76
2022/09/17 03:43:05;;;;;;;;;;;;;;;14.62;61.03;100373.84;4996292;28;7023;-75
2022/09/17 03:45:31;;;;;;;;;;;;;;;14.60;60.60;100369.47;5013946;28;6788;-76
2022/09/17 03:47:57;;;;;;;;;;;;;;;14.62;60.98;100368.66;4996974;28;6787;-76
2022/09/17 03:50:22;;;;;;;;;;;;;;;14.63;60.81;100372.16;4994703;28;6791;-76
2022/09/17 03:52:48;;;;;;;;;;;;;;;14.64;60.94;100376.47;4982371;28;7185;-77
2022/09/17 03:55:15;;;;;;;;;;;;;;;14.66;61.03;100374.81;4991705;28;7211;-77
2022/09/17 03:57:40;;;;;;;;;;;;;;;14.67;60.39;100374.88;4996915;28;7201;-76
2022/09/17 04:00:07;;;;;;;;;;;;;;;14.68;61.04;100380.91;4996337;28;6772;-77
2022/09/17 04:02:33;;;;;;;;;;;;;;;14.70;60.94;100379.25;4992289;28;6816;-76
2022/09/17 04:04:59;;;;;;;;;;;;;;;14.72;60.92;100382.75;4983910;28;6783;-76
2022/09/17 04:07:24;;;;;;;;;;;;;;;14.72;60.41;100378.47;4994544;28;6982;-76
2022/09/17 04:09:50;;;;;;;;;;;;;;;14.74;60.27;100380.25;4984301;28;6931;-76
2022/09/17 04:12:15;;;;;;;;;;;;;;;14.73;60.87;100381.94;4995878;28;6792;-75
2022/09/17 04:14:41;;;;;;;;;;;;;;;14.72;60.54;100385.31;4983762;28;8432;-76
2022/09/17 04:17:07;;;;;;;;;;;;;;;14.72;59.92;100385.31;4995557;28;6930;-77
2022/09/17 04:19:32;;;;;;;;;;;;;;;14.71;60.71;100386.16;4975797;28;7032;-75
2022/09/17 04:21:59;;;;;;;;;;;;;;;14.70;60.83;100387.00;4995331;28;6779;-77
2022/09/17 04:24:24;;;;;;;;;;;;;;;14.68;60.45;100386.06;5011914;28;7206;-77
2022/09/17 04:26:50;;;;;;;;;;;;;;;14.66;60.84;100388.59;4995327;28;6780;-76
2022/09/17 04:29:15;;;;;;;;;;;;;;;14.66;60.67;100392.88;4998755;28;6952;-76
2022/09/17 04:31:41;;;;;;;;;;;;;;;14.66;61.29;100392.88;4995005;28;7217;-77
2022/09/17 04:34:07;;;;;;;;;;;;;;;14.67;61.09;100386.88;4996141;28;6918;-77
2022/09/17 04:36:32;;;;;;;;;;;;;;;14.67;60.67;100392.91;4997529;28;7223;-75
2022/09/17 04:38:58;;;;;;;;;;;;;;;14.70;61.06;100385.25;5013598;28;6772;-76
2022/09/17 04:41:24;;;;;;;;;;;;;;;14.72;60.61;100393.06;4995025;28;7219;-76
2022/09/17 04:43:50;;;;;;;;;;;;;;;14.72;61.00;100398.22;4993253;28;6852;-77
2022/09/17 04:46:15;;;;;;;;;;;;;;;14.71;60.65;100401.63;4993796;28;6952;-76
2022/09/17 04:48:41;;;;;;;;;;;;;;;14.71;60.35;100396.47;4984774;28;8470;-76
2022/09/17 04:51:07;;;;;;;;;;;;;;;14.69;60.99;100403.28;4993276;28;6950;-75
2022/09/17 04:53:33;;;;;;;;;;;;;;;14.69;60.83;100399.00;4979594;28;6973;-75
2022/09/17 04:55:58;;;;;;;;;;;;;;;14.72;60.61;100403.38;5013748;28;6772;-75
2022/09/17 04:58:24;;;;;;;;;;;;;;;14.72;60.88;100398.22;5011374;28;6783;-76
2022/09/17 05:00:49;;;;;;;;;;;;;;;14.73;60.50;100402.59;4978292;28;7210;-76
2022/09/17 05:03:15;;;;;;;;;;;;;;;14.75;61.26;100403.50;5009911;28;6788;-76
2022/09/17 05:05:41;;;;;;;;;;;;;;;14.76;60.85;100405.25;5010788;28;6969;-76
2022/09/17 05:08:07;;;;;;;;;;;;;;;14.76;60.89;100400.09;4979038;28;7252;-76
2022/09/17 05:10:33;;;;;;;;;;;;;;;14.75;60.34;100405.22;5014410;28;6780;-75
2022/09/17 05:12:58;;;;;;;;;;;;;;;14.69;60.64;100401.56;4991006;28;7144;-76
2022/09/17 05:15:25;;;;;;;;;;;;;;;14.65;60.75;100406.59;5008098;28;6900;-77
2022/09/17 05:17:51;;;;;;;;;;;;;;;14.60;59.84;100418.47;4976500;28;6950;-77
2022/09/17 05:20:17;;;;;;;;;;;;;;;14.56;60.26;100409.78;4990820;28;7016;-76
2022/09/17 05:22:46;;;;;;;;;;;;;;;14.50;60.85;100412.13;5011258;28;6972;-76
2022/09/17 05:25:15;;;;;;;;;;;;;;;14.47;61.06;100412.91;4994269;28;6812;-77
2022/09/17 05:27:42;;;;;;;;;;;;;;;14.46;61.40;100411.16;4974640;28;7002;-77
2022/09/17 05:30:09;;;;;;;;;;;;;;;14.46;60.57;100420.63;4991386;28;6800;-76
2022/09/17 05:32:36;;;;;;;;;;;;;;;14.48;60.92;100417.22;4999886;28;7709;-77
2022/09/17 05:35:03;;;;;;;;;;;;;;;14.50;61.09;100427.63;4992640;28;7013;-76
2022/09/17 05:37:29;;;;;;;;;;;;;;;14.52;61.70;100432.00;4993479;28;7043;-77
2022/09/17 05:39:54;;;;;;;;;;;;;;;14.55;60.97;100428.66;5013432;28;6810;-76
2022/09/17 05:42:20;;;;;;;;;;;;;;;14.60;61.20;100431.38;4995191;28;6918;-76
2022/09/17 05:44:46;;;;;;;;;;;;;;;14.63;61.10;100434.94;5014439;28;6772;-78
2022/09/17 05:47:11;;;;;;;;;;;;;;;14.68;61.52;100442.81;4998666;28;7227;-76
2022/09/17 05:49:37;;;;;;;;;;;;;;;14.72;61.36;100439.50;5014868;28;6905;-78
2022/09/17 05:52:02;;;;;;;;;;;;;;;14.75;61.05;100434.47;4992675;28;6771;-77
2022/09/17 05:54:29;;;;;;;;;;;;;;;14.81;60.73;100431.19;4993469;28;6954;-78
2022/09/17 05:56:55;;;;;;;;;;;;;;;14.82;60.65;100436.41;5009441;28;6772;-78
2022/09/17 05:59:21;;;;;;;;;;;;;;;14.86;61.32;100442.53;4993196;28;6848;-76
2022/09/17 06:01:47;;;;;;;;;;;;;;;14.89;61.20;100441.78;5011498;28;8417;-75
2022/09/17 06:04:13;;;;;;;;;;;;;;;14.92;60.82;100452.19;4989217;28;8468;-76
2022/09/17 06:06:40;;;;;;;;;;;;;;;14.94;61.09;100461.72;5009803;28;6776;-76
2022/09/17 06:09:08;;;;;;;;;;;;;;;14.95;61.21;100453.16;4993628;28;6986;-77
2022/09/17 06:11:34;;;;;;;;;;;;;;;14.96;60.92;100457.47;4991014;28;7167;-75
2022/09/17 06:14:00;;;;;;;;;;;;;;;14.97;60.58;100461.81;4991045;28;7343;-76
2022/09/17 06:16:26;;;;;;;;;;;;;;;14.97;60.51;100456.66;4993946;28;6779;-77
2022/09/17 06:18:52;;;;;;;;;;;;;;;14.97;61.26;100456.66;5008297;28;6859;-77
2022/09/17 06:21:20;;;;;;;;;;;;;;;14.98;61.08;100457.53;5009488;28;7209;-77
2022/09/17 06:23:46;;;;;;;;;;;;;;;14.99;60.39;100456.72;4992677;28;6812;-76
2022/09/17 06:26:12;;;;;;;;;;;;;;;14.98;60.91;100457.53;4992293;28;7244;-77
2022/09/17 06:28:38;;;;;;;;;;;;;;;14.99;60.36;100460.16;4991084;28;7202;-76
2022/09/17 06:31:06;;;;;;;;;;;;;;;15.01;60.62;100462.78;5010870;28;6946;-76
2022/09/17 06:33:32;;;;;;;;;;;;;;;15.01;61.30;100462.78;4990645;28;7022;-76
2022/09/17 06:36:10;;;;;;;;;;;;;;;15.00;61.09;100454.16;4991817;28;6848;-77
2022/09/17 06:38:37;;;;;;;;;;;;;;;15.05;61.21;100459.47;5007921;28;7226;-75
2022/09/17 06:41:03;;;;;;;;;;;;;;;15.11;60.90;100463.94;4989294;28;6807;-77
2022/09/17 06:43:30;;;;;;;;;;;;;;;15.23;61.16;100472.06;4979607;28;6971;-77
2022/09/17 06:45:59;;;;;;;;;;;;;;;15.37;61.78;100474.16;4990747;28;6791;-78
2022/09/17 06:48:27;;;;;;;;;;;;;;;15.48;60.78;100464.16;4990658;28;7240;-77
2022/09/17 06:50:54;;;;;;;;;;;;;;;15.55;61.05;100466.97;4987011;28;6980;-77
2022/09/17 06:53:21;;;;;;;;;;;;;;;15.61;61.13;100478.31;4977595;28;7055;-76
2022/09/17 06:55:47;;;;;;;;;;;;;;;15.67;61.09;100474.19;4995915;28;6800;-77
2022/09/17 06:58:13;;;;;;;;;;;;;;;15.71;60.83;100474.25;4976608;28;6963;-78
2022/09/17 07:00:39;;;;;;;;;;;;;;;15.73;59.88;100483.81;4991192;28;6973;-77
2022/09/17 07:03:05;;;;;;;;;;;;;;;15.74;60.10;100479.50;4993549;28;6784;-78
2022/09/17 07:05:31;;;;;;;;;;;;;;;15.76;59.98;100481.31;5012339;28;6788;-75
2022/09/17 07:08:03;;;;;;;;;;;;;;;15.81;60.83;100478.84;4992820;28;6856;-77
2022/09/17 07:10:29;;;;;;;;;;;;;;;15.91;60.60;100475.72;4992735;28;6968;-76
2022/09/17 07:12:55;;;;;;;;;;;;;;;16.02;60.73;100473.44;4991131;28;6958;-77
2022/09/17 07:15:21;;;;;;;;;;;;;;;16.12;60.13;100471.97;4976380;28;7168;-76
2022/09/17 07:17:47;;;;;;;;;;;;;;;16.20;60.51;100473.03;4990992;28;7054;-75
2022/09/17 07:20:13;;;;;;;;;;;;;;;16.28;60.77;100474.97;4993354;28;6863;-76
2022/09/17 07:22:39;;;;;;;;;;;;;;;16.41;60.90;100476.16;4993954;28;7232;-77
2022/09/17 07:25:06;;;;;;;;;;;;;;;16.59;61.44;100473.13;4974477;28;6939;-77
2022/09/17 07:27:32;;;;;;;;;;;;;;;16.79;60.71;100473.63;4975636;28;7190;-77
2022/09/17 07:29:58;;;;;;;;;;;;;;;16.96;60.24;100473.16;4985590;28;6987;-77
2022/09/17 07:32:24;;;;;;;;;;;;;;;17.08;59.94;100473.44;4989212;28;6948;-76
2022/09/17 07:34:50;;;;;;;;;;;;;;;17.19;59.87;100471.09;4973100;28;6989;-78
2022/09/17 07:37:17;;;;;;;;;;;;;;;17.25;59.06;100472.97;5009103;28;6935;-77
2022/09/17 07:39:43;;;;;;;;;;;;;;;17.31;58.93;100475.66;5011378;28;6868;-76
2022/09/17 07:42:09;;;;;;;;;;;;;;;17.32;58.59;100465.34;4991027;28;6779;-77
2022/09/17 07:44:36;;;;;;;;;;;;;;;17.33;58.46;100461.03;5018317;28;6800;-76
2022/09/17 07:47:03;;;;;;;;;;;;;;;17.31;58.20;100468.78;4981299;28;8221;-75
2022/09/17 07:49:28;;;;;;;;;;;;;;;17.31;58.35;100473.97;4996718;28;6888;-77
2022/09/17 07:51:54;;;;;;;;;;;;;;;17.32;58.05;100467.94;4994264;28;6776;-77
2022/09/17 07:54:20;;;;;;;;;;;;;;;17.37;58.28;100472.31;4992917;28;7212;-76
2022/09/17 07:56:46;;;;;;;;;;;;;;;17.42;58.33;100470.72;4978881;28;6952;-77
2022/09/17 07:59:11;;;;;;;;;;;;;;;17.44;57.79;100479.41;4995012;28;6796;-75
2022/09/17 08:01:37;;;;;;;;;;;;;;;17.42;57.71;100475.91;4995580;28;6776;-77
2022/09/17 08:04:03;;;;;;;;;;;;;;;17.38;57.89;100474.97;4995316;28;7348;-75
2022/09/17 08:06:29;;;;;;;;;;;;;;;17.45;58.22;100476.84;4984142;28;7437;-76
2022/09/17 08:08:59;;;;;;;;;;;;;;;17.54;57.85;100470.97;5011122;28;6771;-75
2022/09/17 08:11:27;;;;;;;;;;;;;;;17.59;57.05;100474.53;4985218;28;7006;-76
2022/09/17 08:13:54;;;;;;;;;;;;;;;17.53;57.00;100474.41;5001911;28;7108;-76
2022/09/17 08:16:21;;;;;;;;;;;;;;;17.42;56.54;100476.75;4993998;28;7198;-76
2022/09/17 08:18:53;;;;;;;;;;;;;;;17.32;56.60;100483.47;4992178;28;6876;-76
2022/09/17 08:21:19;;;;;;;;;;;;;;;17.22;56.69;100481.53;4995318;28;7231;-76
2022/09/17 08:23:44;;;;;;;;;;;;;;;17.18;56.77;100482.28;4995082;28;6973;-76
2022/09/17 08:26:21;;;;;;;;;;;;;;;17.17;57.35;100485.72;4994505;28;7187;-76
2022/09/17 08:28:55;;;;;;;;;;;;;;;17.15;57.33;100479.63;5009923;28;6800;-76
2022/09/17 08:31:25;;;;;;;;;;;;;;;17.13;57.08;100473.56;4992489;28;7077;-76
2022/09/17 08:33:50;;;;;;;;;;;;;;;17.11;57.12;100480.41;4989065;28;7006;-76
2022/09/17 08:36:18;;;;;;;;;;;;;;;17.13;57.04;100481.31;4993300;28;6926;-76
2022/09/17 08:38:44;;;;;;;;;;;;;;;17.17;56.91;100483.13;4994972;28;7071;-77
2022/09/17 08:41:10;;;;;;;;;;;;;;;17.21;57.07;100482.38;4976217;28;6876;-76
2022/09/17 08:44:11;;;;;;;;;;;;;;;17.28;56.99;100489.41;4985629;28;7129;-77
2022/09/17 08:47:12;;;;;;;;;;;;;;;17.39;56.53;100488.81;5014299;28;6965;-75
2022/09/17 08:50:11;;;;;;;;;;;;;;;17.47;56.39;100488.09;4985237;28;7243;-75
2022/09/17 08:53:05;;;;;;;;;;;;;;;17.65;56.69;100494.53;4996110;28;6804;-76
2022/09/17 08:55:42;;;;;;;;;;;;;;;17.90;56.60;100498.47;5010914;28;6808;-76
2022/09/17 08:59:07;;;;;;;;;;;;;;;18.29;56.32;100495.75;4982529;28;7183;-75
2022/09/17 09:01:50;;;;;;;;;;;;;;;18.73;56.04;100492.16;5008234;28;7005;-77
2022/09/17 09:04:48;;;;;;;;;;;;;;;19.01;54.48;100496.06;4994818;28;6820;-75
2022/09/17 09:07:26;;;;;;;;;;;;;;;19.21;53.46;100494.63;4999922;28;7020;-73
2022/09/17 09:10:30;;;;;;;;;;;;;;;19.27;53.31;100500.75;4982002;28;7171;-72
2022/09/17 09:12:59;;;;;;;;;;;;;;;19.26;52.54;100493.81;4991910;28;6811;-75
2022/09/17 09:15:45;;;;;;;;;;;;;;;19.27;52.41;100498.16;4996829;28;7141;-74
2022/09/17 09:18:29;;;;;;;;;;;;;;;19.31;52.06;100508.59;4976903;28;8374;-73
2022/09/17 09:21:22;;;;;;;;;;;;;;;19.38;51.59;100507.84;4994047;28;7669;-72
2022/09/17 09:24:09;;;;;;;;;;;;;;;19.41;51.55;100505.25;4991515;28;6860;-74
2022/09/17 09:26:46;;;;;;;;;;;;;;;19.44;51.04;100513.13;4995946;28;7191;-75
2022/09/17 09:29:40;;;;;;;;;;;;;;;19.52;51.51;100498.50;4978280;28;7048;-74
2022/09/17 09:32:45;;;;;;;;;;;;;;;19.61;51.11;100504.69;5016741;28;6827;-74
2022/09/17 09:35:28;;;;;;;;;;;;;;;19.71;50.87;100516.94;4981830;28;6924;-73
2022/09/17 09:38:12;;;;;;;;;;;;;;;19.82;50.37;100504.94;5002839;28;7076;-73
2022/09/17 09:41:16;;;;;;;;;;;;;;;19.98;50.01;100492.09;4991917;28;7266;-73
2022/09/17 09:43:56;;;;;;;;;;;;;;;20.09;49.73;100500.03;5013552;28;6827;-72
2022/09/17 09:46:40;;;;;;;;;;;;;;;20.07;49.06;100502.59;4982617;28;7262;-74
2022/09/17 09:49:24;;;;;;;;;;;;;;;19.99;48.67;100486.06;5015812;28;6895;-72
2022/09/17 09:52:08;;;;;;;;;;;;;;;19.76;48.60;100502.25;5014375;28;6868;-72
2022/09/17 09:55:00;;;;;;;;;;;;;;;19.53;49.24;100508.03;4982095;28;7182;-74
2022/09/17 09:57:42;;;;;;;;;;;;;;;19.40;49.01;100508.72;4989537;28;6863;-73
2022/09/17 10:00:41;;;;;;;;;;;;;;;19.36;49.88;100501.75;5011104;28;7032;-73
2022/09/17 10:03:21;;;;;;;;;;;;;;;19.39;49.79;100504.38;4998172;28;11738;-73
2022/09/17 10:06:08;;;;;;;;;;;;;;;19.49;49.24;100501.03;4995635;28;7187;-73
2022/09/17 10:09:00;;;;;;;;;;;;;;;19.60;48.54;100493.38;4993772;28;7375;-73
2022/09/17 10:11:34;;;;;;;;;;;;;;;19.64;48.60;100494.31;5013381;28;7186;-73
2022/09/17 10:14:24;;;;;;;;;;;;;;;19.66;48.42;100492.59;4993538;28;6812;-74
2022/09/17 10:17:23;;;;;;;;;;;;;;;19.94;49.20;100485.13;4992739;28;7105;-74
2022/09/17 10:20:01;;;;;;;;;;;;;;;20.98;48.66;100480.81;4989619;28;6860;-73
2022/09/17 10:22:43;;;;;;;;;;;;;;;22.25;47.09;100472.63;5015125;28;7269;-73
2022/09/17 10:25:32;;;;;;;;;;;;;;;23.59;44.90;100461.97;4991788;28;7256;-74
2022/09/17 10:28:05;;;;;;;;;;;;;;;24.63;43.22;100461.25;4975596;28;6975;-74
2022/09/17 10:30:31;;;;;;;;;;;;;;;25.58;42.48;100462.84;4992450;28;6864;-74
2022/09/17 10:33:21;;;;;;;;;;;;;;;26.31;40.71;100450.44;4992117;28;6975;-74
2022/09/17 10:36:10;;;;;;;;;;;;;;;27.00;40.15;100456.22;5005851;28;6808;-75
2022/09/17 10:38:48;;;;;;;;;;;;;;;27.51;38.13;100449.03;4992018;28;6804;-74
2022/09/17 10:41:20;;;;;;;;;;;;;;;27.49;37.77;100456.13;4991546;28;6808;-74
2022/09/17 10:43:50;;;;;;;;;;;;;;;27.44;37.83;100453.59;5013682;28;6998;-74
2022/09/17 10:46:34;;;;;;;;;;;;;;;27.42;37.64;100441.34;4991338;28;7056;-75
2022/09/17 10:49:30;;;;;;;;;;;;;;;27.38;37.28;100439.69;4977927;28;6960;-74
2022/09/17 10:52:41;;;;;;;;;;;;;;;27.85;36.76;100427.25;5013513;28;7216;-74
2022/09/17 10:55:48;;;;;;;;;;;;;;;28.61;35.93;100428.91;4974015;28;7079;-74
2022/09/17 10:58:51;;;;;;;;;;;;;;;28.84;34.36;100425.69;5010546;28;7125;-74
2022/09/17 11:02:01;;;;;;;;;;;;;;;27.75;34.58;100424.88;5004969;28;6800;-74
2022/09/17 11:04:59;;;;;;;;;;;;;;;26.78;35.43;100432.06;4994794;28;6994;-74
2022/09/17 11:07:33;;;;;;;;;;;;;;;26.17;35.45;100427.88;4993827;28;7057;-74
2022/09/17 11:10:19;;;;;;;;;;;;;;;25.44;35.99;100425.41;5007719;28;6849;-73
2022/09/17 11:13:15;;;;;;;;;;;;;;;25.15;37.15;100422.28;4993090;28;7138;-74
2022/09/17 11:16:10;;;;;;;;;;;;;;;25.18;36.71;100418.75;4985078;28;6820;-73
2022/09/17 11:18:46;;;;;;;;;;;;;;;24.89;36.81;100427.81;4994955;28;6812;-73
2022/09/17 11:21:29;;;;;;;;;;;;;;;24.27;37.01;100435.38;4985181;28;8076;-73
2022/09/17 11:24:26;;;;;;;;;;;;;;;23.32;37.57;100461.19;5017848;28;7378;-74
2022/09/17 11:27:11;;;;;;;;;;;;;;;22.30;38.71;100476.09;5012544;28;6811;-73
2022/09/17 11:29:59;;;;;;;;;;;;;;;21.31;39.64;100499.25;4994117;28;6991;-77
2022/09/17 11:33:18;;;;;;;;;;;;;;;20.11;41.01;100495.72;5001037;28;7169;-76
2022/09/17 11:36:03;;;;;;;;;;;;;;;18.91;42.54;100483.75;5012456;28;6965;-76
2022/09/17 11:38:42;;;;;;;;;;;;;;;18.03;44.37;100486.66;4995248;28;7058;-76
2022/09/17 11:41:26;;;;;;;;;;;;;;;17.37;45.57;100495.63;4995603;28;6796;-77
2022/09/17 11:44:15;;;;;;;;;;;;;;;16.93;46.80;100503.28;5015228;28;6800;-77
2022/09/17 11:46:48;;;;;;;;;;;;;;;16.60;48.08;100487.81;4992931;28;6804;-76
2022/09/17 11:49:22;;;;;;;;;;;;;;;16.37;48.94;100488.13;4978695;28;8393;-76
2022/09/17 11:52:10;;;;;;;;;;;;;;;16.21;49.69;100485.13;5013341;28;6966;-76
2022/09/17 11:54:51;;;;;;;;;;;;;;;16.12;50.13;100479.72;4995831;28;6935;-77
2022/09/17 11:57:36;;;;;;;;;;;;;;;16.14;50.87;100475.47;4995110;28;6879;-76
2022/09/17 12:00:22;;;;;;;;;;;;;;;16.27;52.05;100474.06;4986167;28;8837;-77
2022/09/17 12:03:13;;;;;;;;;;;;;;;16.47;51.95;100465.97;4986985;28;11327;-77
2022/09/17 12:05:50;;;;;;;;;;;;;;;16.66;52.21;100467.28;5016438;28;7297;-76
2022/09/17 12:08:57;;;;;;;;;;;;;;;16.78;51.74;100470.16;4984490;28;7129;-76
2022/09/17 12:11:45;;;;;;;;;;;;;;;16.86;52.14;100459.09;4994429;28;7369;-76
2022/09/17 12:14:42;;;;;;;;;;;;;;;17.10;52.56;100463.13;5011330;28;7026;-76
2022/09/17 12:17:20;;;;;;;;;;;;;;;17.39;53.45;100461.16;5001839;28;6981;-76
2022/09/17 12:19:54;;;;;;;;;;;;;;;17.82;53.17;100450.78;4977039;28;7951;-76
2022/09/17 12:22:29;;;;;;;;;;;;;;;18.23;53.21;100454.13;4969200;28;6999;-76
2022/09/17 12:24:56;;;;;;;;;;;;;;;18.53;53.04;100455.47;4993514;28;7202;-76
2022/09/17 12:27:55;;;;;;;;;;;;;;;18.83;52.91;100443.81;4976950;28;7327;-75
2022/09/17 12:30:34;;;;;;;;;;;;;;;19.04;52.56;100445.88;4985199;28;7214;-75
2022/09/17 12:33:38;;;;;;;;;;;;;;;19.14;51.37;100449.50;4985407;28;6941;-76
2022/09/17 12:36:29;;;;;;;;;;;;;;;19.20;51.89;100453.91;5010449;28;7029;-75
2022/09/17 12:39:34;;;;;;;;;;;;;;;19.10;50.62;100458.09;4998641;28;6976;-75
2022/09/17 12:42:28;;;;;;;;;;;;;;;18.87;51.09;100435.25;5016885;28;7183;-75
2022/09/17 12:45:15;;;;;;;;;;;;;;;18.61;50.26;100446.09;5014701;28;7324;-75
2022/09/17 12:47:58;;;;;;;;;;;;;;;18.28;50.69;100442.13;5012853;28;7298;-75
2022/09/17 12:51:03;;;;;;;;;;;;;;;17.83;51.23;100443.88;5000349;28;7284;-75
2022/09/17 12:53:35;;;;;;;;;;;;;;;17.62;52.24;100440.00;5007116;28;7205;-76
2022/09/17 12:56:29;;;;;;;;;;;;;;;17.57;52.48;100444.25;4998383;28;6871;-75
2022/09/17 12:59:07;;;;;;;;;;;;;;;17.56;52.52;100447.69;5011396;28;8189;-74
2022/09/17 13:01:54;;;;;;;;;;;;;;;17.59;52.50;100448.63;4995907;28;6848;-75
2022/09/17 13:05:05;;;;;;;;;;;;;;;17.69;52.17;100444.47;5012369;28;6960;-75
2022/09/17 13:08:15;;;;;;;;;;;;;;;18.01;52.83;100440.75;5013792;28;7173;-76
2022/09/17 13:11:30;;;;;;;;;;;;;;;19.06;52.19;100435.53;4999044;28;7235;-74
2022/09/17 13:14:30;;;;;;;;;;;;;;;20.09;49.99;100429.78;5011736;28;7333;-74
2022/09/17 13:17:10;;;;;;;;;;;;;;;20.61;49.02;100434.56;4992570;28;7167;-74
2022/09/17 13:20:04;;;;;;;;;;;;;;;20.68;47.66;100438.94;5012550;28;7238;-74
2022/09/17 13:22:41;;;;;;;;;;;;;;;20.60;48.02;100425.00;5010277;28;7153;-75
2022/09/17 13:25:12;;;;;;;;;;;;;;;20.89;48.01;100426.94;4994563;28;7199;-74
2022/09/17 13:27:39;;;;;;;;;;;;;;;21.29;47.04;100428.00;4993990;28;6808;-74
2022/09/17 13:30:10;;;;;;;;;;;;;;;21.41;46.52;100420.22;4994099;28;7021;-74
2022/09/17 13:32:38;;;;;;;;;;;;;;;21.34;45.89;100418.47;4991931;28;6972;-76
2022/09/17 13:35:13;;;;;;;;;;;;;;;21.07;45.97;100413.13;5014380;28;6788;-74
2022/09/17 13:37:51;;;;;;;;;;;;;;;20.68;46.37;100417.22;4999169;28;7187;-74